sensor_id;sensor_type;location;lat;lon;timestamp;P1;durP1;ratioP1;P2;durP2;ratioP2
57778;SDS011;43608;49.486;9.640;2023-02-28T00:00:04;5.10;;;3.60;;
57778;SDS011;43608;49.486;9.640;2023-02-28T00:00:44;5.20;;;3.75;;
57778;SDS011;43608;49.486;9.640;2023-02-28T00:01:14;4.63;;;3.50;;
57778;SDS011;43608;49.486;9.640;2023-02-28T00:01:45;5.88;;;3.60;;
57778;SDS011;43608;49.486;9.640;2023-02-28T00:02:16;4.90;;;3.47;;
57778;SDS011;43608;49.486;9.640;2023-02-28T00:02:47;4.70;;;3.35;;
57778;SDS011;43608;49.486;9.640;2023-02-28T00:03:18;5.10;;;3.55;;
57778;SDS011;43608;49.486;9.640;2023-02-28T00:03:49;4.97;;;3.83;;
57778;SDS011;43608;49.486;9.640;2023-02-28T00:04:19;5.80;;;3.45;;
57778;SDS011;43608;49.486;9.640;2023-02-28T00:04:49;5.20;;;3.67;;
57778;SDS011;43608;49.486;9.640;2023-02-28T00:05:25;6.97;;;3.75;;
57778;SDS011;43608;49.486;9.640;2023-02-28T00:05:56;5.05;;;3.70;;
57778;SDS011;43608;49.486;9.640;2023-02-28T00:06:27;5.43;;;3.60;;
57778;SDS011;43608;49.486;9.640;2023-02-28T00:06:57;6.15;;;4.00;;
57778;SDS011;43608;49.486;9.640;2023-02-28T00:07:28;5.03;;;3.80;;
57778;SDS011;43608;49.486;9.640;2023-02-28T00:07:58;5.38;;;4.05;;
57778;SDS011;43608;49.486;9.640;2023-02-28T00:08:29;5.57;;;4.00;;
57778;SDS011;43608;49.486;9.640;2023-02-28T00:08:59;6.32;;;3.85;;
57778;SDS011;43608;49.486;9.640;2023-02-28T00:09:31;5.20;;;3.95;;
57778;SDS011;43608;49.486;9.640;2023-02-28T00:10:01;6.05;;;4.28;;
57778;SDS011;43608;49.486;9.640;2023-02-28T00:10:32;4.70;;;3.45;;
57778;SDS011;43608;49.486;9.640;2023-02-28T00:11:04;5.10;;;3.80;;
57778;SDS011;43608;49.486;9.640;2023-02-28T00:11:36;5.45;;;3.88;;
57778;SDS011;43608;49.486;9.640;2023-02-28T00:12:07;6.05;;;4.38;;
57778;SDS011;43608;49.486;9.640;2023-02-28T00:12:40;5.50;;;3.67;;
57778;SDS011;43608;49.486;9.640;2023-02-28T00:13:10;5.32;;;3.97;;
57778;SDS011;43608;49.486;9.640;2023-02-28T00:13:41;5.90;;;3.85;;
57778;SDS011;43608;49.486;9.640;2023-02-28T00:14:16;4.75;;;3.50;;
57778;SDS011;43608;49.486;9.640;2023-02-28T00:14:46;5.40;;;3.75;;
57778;SDS011;43608;49.486;9.640;2023-02-28T00:15:16;5.25;;;3.80;;
57778;SDS011;43608;49.486;9.640;2023-02-28T00:15:57;5.13;;;3.67;;
57778;SDS011;43608;49.486;9.640;2023-02-28T00:16:29;5.25;;;3.60;;
57778;SDS011;43608;49.486;9.640;2023-02-28T00:16:59;4.72;;;3.72;;
57778;SDS011;43608;49.486;9.640;2023-02-28T00:17:29;4.80;;;3.60;;
57778;SDS011;43608;49.486;9.640;2023-02-28T00:18:00;4.68;;;3.45;;
57778;SDS011;43608;49.486;9.640;2023-02-28T00:18:31;4.75;;;3.75;;
57778;SDS011;43608;49.486;9.640;2023-02-28T00:19:01;5.88;;;3.67;;
57778;SDS011;43608;49.486;9.640;2023-02-28T00:19:32;5.65;;;3.80;;
57778;SDS011;43608;49.486;9.640;2023-02-28T00:20:03;4.90;;;3.80;;
57778;SDS011;43608;49.486;9.640;2023-02-28T00:20:37;5.70;;;3.65;;
57778;SDS011;43608;49.486;9.640;2023-02-28T00:21:08;5.15;;;3.60;;
57778;SDS011;43608;49.486;9.640;2023-02-28T00:21:38;5.60;;;3.45;;
57778;SDS011;43608;49.486;9.640;2023-02-28T00:22:10;5.90;;;4.00;;
57778;SDS011;43608;49.486;9.640;2023-02-28T00:22:42;5.90;;;3.78;;
57778;SDS011;43608;49.486;9.640;2023-02-28T00:23:14;5.30;;;4.15;;
57778;SDS011;43608;49.486;9.640;2023-02-28T00:23:45;6.50;;;4.07;;
57778;SDS011;43608;49.486;9.640;2023-02-28T00:24:16;5.35;;;4.00;;
57778;SDS011;43608;49.486;9.640;2023-02-28T00:24:46;4.85;;;3.60;;
57778;SDS011;43608;49.486;9.640;2023-02-28T00:25:18;5.35;;;3.75;;
57778;SDS011;43608;49.486;9.640;2023-02-28T00:25:51;4.50;;;3.45;;
57778;SDS011;43608;49.486;9.640;2023-02-28T00:26:21;5.55;;;3.90;;
57778;SDS011;43608;49.486;9.640;2023-02-28T00:26:51;5.60;;;4.10;;
57778;SDS011;43608;49.486;9.640;2023-02-28T00:27:22;5.18;;;3.92;;
57778;SDS011;43608;49.486;9.640;2023-02-28T00:27:52;4.78;;;3.70;;
57778;SDS011;43608;49.486;9.640;2023-02-28T00:28:23;5.85;;;4.00;;
57778;SDS011;43608;49.486;9.640;2023-02-28T00:28:54;5.55;;;3.85;;
57778;SDS011;43608;49.486;9.640;2023-02-28T00:29:24;5.40;;;3.95;;
57778;SDS011;43608;49.486;9.640;2023-02-28T00:29:55;4.78;;;3.63;;
57778;SDS011;43608;49.486;9.640;2023-02-28T00:30:25;5.22;;;3.60;;
57778;SDS011;43608;49.486;9.640;2023-02-28T00:30:56;4.70;;;3.33;;
57778;SDS011;43608;49.486;9.640;2023-02-28T00:31:27;4.95;;;3.90;;
57778;SDS011;43608;49.486;9.640;2023-02-28T00:31:57;5.68;;;4.20;;
57778;SDS011;43608;49.486;9.640;2023-02-28T00:32:28;5.80;;;4.00;;
57778;SDS011;43608;49.486;9.640;2023-02-28T00:32:58;5.45;;;4.03;;
57778;SDS011;43608;49.486;9.640;2023-02-28T00:33:29;6.53;;;3.92;;
57778;SDS011;43608;49.486;9.640;2023-02-28T00:33:59;5.68;;;4.10;;
57778;SDS011;43608;49.486;9.640;2023-02-28T00:34:30;6.13;;;4.18;;
57778;SDS011;43608;49.486;9.640;2023-02-28T00:35:00;4.80;;;3.70;;
57778;SDS011;43608;49.486;9.640;2023-02-28T00:35:31;4.45;;;3.60;;
57778;SDS011;43608;49.486;9.640;2023-02-28T00:36:02;4.97;;;3.80;;
57778;SDS011;43608;49.486;9.640;2023-02-28T00:36:34;6.03;;;3.72;;
57778;SDS011;43608;49.486;9.640;2023-02-28T00:37:05;4.88;;;3.65;;
57778;SDS011;43608;49.486;9.640;2023-02-28T00:37:37;4.80;;;3.95;;
57778;SDS011;43608;49.486;9.640;2023-02-28T00:38:07;5.60;;;3.88;;
57778;SDS011;43608;49.486;9.640;2023-02-28T00:38:38;5.43;;;4.20;;
57778;SDS011;43608;49.486;9.640;2023-02-28T00:39:11;5.10;;;4.00;;
57778;SDS011;43608;49.486;9.640;2023-02-28T00:39:41;5.45;;;3.72;;
57778;SDS011;43608;49.486;9.640;2023-02-28T00:40:12;4.95;;;3.80;;
57778;SDS011;43608;49.486;9.640;2023-02-28T00:40:42;5.60;;;4.13;;
57778;SDS011;43608;49.486;9.640;2023-02-28T00:41:13;5.25;;;3.92;;
57778;SDS011;43608;49.486;9.640;2023-02-28T00:41:43;6.10;;;4.20;;
57778;SDS011;43608;49.486;9.640;2023-02-28T00:42:14;6.18;;;4.07;;
57778;SDS011;43608;49.486;9.640;2023-02-28T00:42:44;5.72;;;4.10;;
57778;SDS011;43608;49.486;9.640;2023-02-28T00:43:14;5.55;;;3.88;;
57778;SDS011;43608;49.486;9.640;2023-02-28T00:43:45;5.40;;;4.00;;
57778;SDS011;43608;49.486;9.640;2023-02-28T00:44:15;5.22;;;4.10;;
57778;SDS011;43608;49.486;9.640;2023-02-28T00:44:45;5.90;;;3.92;;
57778;SDS011;43608;49.486;9.640;2023-02-28T00:45:16;5.82;;;4.00;;
57778;SDS011;43608;49.486;9.640;2023-02-28T00:45:46;5.78;;;4.00;;
57778;SDS011;43608;49.486;9.640;2023-02-28T00:46:16;5.18;;;4.05;;
57778;SDS011;43608;49.486;9.640;2023-02-28T00:46:47;4.90;;;3.92;;
57778;SDS011;43608;49.486;9.640;2023-02-28T00:47:17;7.03;;;4.10;;
57778;SDS011;43608;49.486;9.640;2023-02-28T00:47:48;5.45;;;4.00;;
57778;SDS011;43608;49.486;9.640;2023-02-28T00:48:19;5.10;;;3.80;;
57778;SDS011;43608;49.486;9.640;2023-02-28T00:48:50;5.85;;;3.85;;
57778;SDS011;43608;49.486;9.640;2023-02-28T00:49:20;5.65;;;3.78;;
57778;SDS011;43608;49.486;9.640;2023-02-28T00:49:51;5.22;;;3.80;;
57778;SDS011;43608;49.486;9.640;2023-02-28T00:50:21;4.90;;;3.60;;
57778;SDS011;43608;49.486;9.640;2023-02-28T00:50:52;5.40;;;3.50;;
57778;SDS011;43608;49.486;9.640;2023-02-28T00:51:22;5.13;;;3.90;;
57778;SDS011;43608;49.486;9.640;2023-02-28T00:51:53;6.00;;;3.88;;
57778;SDS011;43608;49.486;9.640;2023-02-28T00:52:24;5.70;;;3.75;;
57778;SDS011;43608;49.486;9.640;2023-02-28T00:52:55;5.32;;;3.90;;
57778;SDS011;43608;49.486;9.640;2023-02-28T00:53:25;5.25;;;3.78;;
57778;SDS011;43608;49.486;9.640;2023-02-28T00:53:56;4.82;;;3.78;;
57778;SDS011;43608;49.486;9.640;2023-02-28T00:54:26;5.03;;;3.67;;
57778;SDS011;43608;49.486;9.640;2023-02-28T00:54:57;5.65;;;4.15;;
57778;SDS011;43608;49.486;9.640;2023-02-28T00:55:27;4.90;;;3.70;;
57778;SDS011;43608;49.486;9.640;2023-02-28T00:55:58;5.68;;;3.95;;
57778;SDS011;43608;49.486;9.640;2023-02-28T00:56:28;4.60;;;3.60;;
57778;SDS011;43608;49.486;9.640;2023-02-28T00:56:59;5.28;;;3.80;;
57778;SDS011;43608;49.486;9.640;2023-02-28T00:57:29;4.45;;;3.58;;
57778;SDS011;43608;49.486;9.640;2023-02-28T00:58:00;5.22;;;3.63;;
57778;SDS011;43608;49.486;9.640;2023-02-28T00:58:30;5.40;;;3.70;;
57778;SDS011;43608;49.486;9.640;2023-02-28T00:59:01;4.82;;;3.60;;
57778;SDS011;43608;49.486;9.640;2023-02-28T00:59:31;5.25;;;3.90;;
57778;SDS011;43608;49.486;9.640;2023-02-28T01:00:02;6.30;;;3.85;;
57778;SDS011;43608;49.486;9.640;2023-02-28T01:00:34;4.65;;;3.60;;
57778;SDS011;43608;49.486;9.640;2023-02-28T01:01:04;5.20;;;3.75;;
57778;SDS011;43608;49.486;9.640;2023-02-28T01:01:35;5.00;;;3.60;;
57778;SDS011;43608;49.486;9.640;2023-02-28T01:02:05;5.55;;;3.42;;
57778;SDS011;43608;49.486;9.640;2023-02-28T01:02:36;5.32;;;3.58;;
57778;SDS011;43608;49.486;9.640;2023-02-28T01:03:07;4.95;;;4.07;;
57778;SDS011;43608;49.486;9.640;2023-02-28T01:03:37;4.68;;;3.40;;
57778;SDS011;43608;49.486;9.640;2023-02-28T01:04:08;4.80;;;3.60;;
57778;SDS011;43608;49.486;9.640;2023-02-28T01:04:38;4.55;;;3.35;;
57778;SDS011;43608;49.486;9.640;2023-02-28T01:05:09;4.63;;;3.40;;
57778;SDS011;43608;49.486;9.640;2023-02-28T01:05:39;5.43;;;3.63;;
57778;SDS011;43608;49.486;9.640;2023-02-28T01:06:10;4.13;;;3.05;;
57778;SDS011;43608;49.486;9.640;2023-02-28T01:06:41;4.72;;;3.45;;
57778;SDS011;43608;49.486;9.640;2023-02-28T01:07:12;3.80;;;3.15;;
57778;SDS011;43608;49.486;9.640;2023-02-28T01:07:44;4.43;;;3.28;;
57778;SDS011;43608;49.486;9.640;2023-02-28T01:08:14;4.57;;;3.13;;
57778;SDS011;43608;49.486;9.640;2023-02-28T01:08:45;4.55;;;3.30;;
57778;SDS011;43608;49.486;9.640;2023-02-28T01:09:15;4.95;;;3.40;;
57778;SDS011;43608;49.486;9.640;2023-02-28T01:09:46;5.63;;;3.60;;
57778;SDS011;43608;49.486;9.640;2023-02-28T01:10:16;4.85;;;3.50;;
57778;SDS011;43608;49.486;9.640;2023-02-28T01:10:46;5.15;;;3.80;;
57778;SDS011;43608;49.486;9.640;2023-02-28T01:11:17;4.95;;;3.50;;
57778;SDS011;43608;49.486;9.640;2023-02-28T01:11:48;4.22;;;3.40;;
57778;SDS011;43608;49.486;9.640;2023-02-28T01:12:19;4.18;;;3.40;;
57778;SDS011;43608;49.486;9.640;2023-02-28T01:12:49;5.07;;;3.60;;
57778;SDS011;43608;49.486;9.640;2023-02-28T01:13:20;4.75;;;3.40;;
57778;SDS011;43608;49.486;9.640;2023-02-28T01:13:50;5.95;;;3.65;;
57778;SDS011;43608;49.486;9.640;2023-02-28T01:14:21;5.47;;;3.70;;
57778;SDS011;43608;49.486;9.640;2023-02-28T01:14:52;6.00;;;4.00;;
57778;SDS011;43608;49.486;9.640;2023-02-28T01:15:22;5.75;;;3.88;;
57778;SDS011;43608;49.486;9.640;2023-02-28T01:15:55;4.88;;;3.72;;
57778;SDS011;43608;49.486;9.640;2023-02-28T01:16:26;5.65;;;3.72;;
57778;SDS011;43608;49.486;9.640;2023-02-28T01:16:57;4.85;;;3.70;;
57778;SDS011;43608;49.486;9.640;2023-02-28T01:17:27;4.68;;;3.60;;
57778;SDS011;43608;49.486;9.640;2023-02-28T01:17:58;5.03;;;3.83;;
57778;SDS011;43608;49.486;9.640;2023-02-28T01:18:28;4.82;;;3.80;;
57778;SDS011;43608;49.486;9.640;2023-02-28T01:18:59;5.60;;;3.90;;
57778;SDS011;43608;49.486;9.640;2023-02-28T01:19:29;5.13;;;4.00;;
57778;SDS011;43608;49.486;9.640;2023-02-28T01:20:00;5.28;;;3.65;;
57778;SDS011;43608;49.486;9.640;2023-02-28T01:20:30;5.00;;;3.90;;
57778;SDS011;43608;49.486;9.640;2023-02-28T01:21:06;4.57;;;3.58;;
57778;SDS011;43608;49.486;9.640;2023-02-28T01:21:42;5.18;;;3.63;;
57778;SDS011;43608;49.486;9.640;2023-02-28T01:22:12;4.50;;;3.30;;
57778;SDS011;43608;49.486;9.640;2023-02-28T01:22:43;4.18;;;3.05;;
57778;SDS011;43608;49.486;9.640;2023-02-28T01:23:13;5.20;;;3.50;;
57778;SDS011;43608;49.486;9.640;2023-02-28T01:23:44;5.10;;;3.38;;
57778;SDS011;43608;49.486;9.640;2023-02-28T01:24:14;5.47;;;3.40;;
57778;SDS011;43608;49.486;9.640;2023-02-28T01:24:45;4.68;;;3.40;;
57778;SDS011;43608;49.486;9.640;2023-02-28T01:25:15;4.88;;;3.40;;
57778;SDS011;43608;49.486;9.640;2023-02-28T01:25:45;4.93;;;3.58;;
57778;SDS011;43608;49.486;9.640;2023-02-28T01:26:20;4.47;;;3.25;;
57778;SDS011;43608;49.486;9.640;2023-02-28T01:26:52;4.03;;;3.15;;
57778;SDS011;43608;49.486;9.640;2023-02-28T01:27:22;4.60;;;3.10;;
57778;SDS011;43608;49.486;9.640;2023-02-28T01:27:53;4.85;;;3.10;;
57778;SDS011;43608;49.486;9.640;2023-02-28T01:28:23;4.20;;;3.05;;
57778;SDS011;43608;49.486;9.640;2023-02-28T01:28:53;4.13;;;3.30;;
57778;SDS011;43608;49.486;9.640;2023-02-28T01:29:25;5.03;;;3.40;;
57778;SDS011;43608;49.486;9.640;2023-02-28T01:29:55;4.40;;;3.30;;
57778;SDS011;43608;49.486;9.640;2023-02-28T01:30:25;4.20;;;3.03;;
57778;SDS011;43608;49.486;9.640;2023-02-28T01:30:56;4.30;;;3.17;;
57778;SDS011;43608;49.486;9.640;2023-02-28T01:31:26;4.80;;;3.45;;
57778;SDS011;43608;49.486;9.640;2023-02-28T01:31:57;4.43;;;3.17;;
57778;SDS011;43608;49.486;9.640;2023-02-28T01:32:29;5.25;;;3.42;;
57778;SDS011;43608;49.486;9.640;2023-02-28T01:32:59;3.90;;;2.90;;
57778;SDS011;43608;49.486;9.640;2023-02-28T01:33:30;4.32;;;3.15;;
57778;SDS011;43608;49.486;9.640;2023-02-28T01:34:01;4.38;;;3.20;;
57778;SDS011;43608;49.486;9.640;2023-02-28T01:34:32;4.47;;;3.20;;
57778;SDS011;43608;49.486;9.640;2023-02-28T01:35:03;4.85;;;3.17;;
57778;SDS011;43608;49.486;9.640;2023-02-28T01:35:34;4.35;;;3.45;;
57778;SDS011;43608;49.486;9.640;2023-02-28T01:36:09;4.38;;;3.42;;
57778;SDS011;43608;49.486;9.640;2023-02-28T01:36:42;4.47;;;3.33;;
57778;SDS011;43608;49.486;9.640;2023-02-28T01:37:12;4.85;;;3.30;;
57778;SDS011;43608;49.486;9.640;2023-02-28T01:37:43;4.40;;;3.47;;
57778;SDS011;43608;49.486;9.640;2023-02-28T01:38:13;5.82;;;3.60;;
57778;SDS011;43608;49.486;9.640;2023-02-28T01:38:44;4.93;;;3.30;;
57778;SDS011;43608;49.486;9.640;2023-02-28T01:39:15;4.35;;;3.45;;
57778;SDS011;43608;49.486;9.640;2023-02-28T01:39:46;3.85;;;3.17;;
57778;SDS011;43608;49.486;9.640;2023-02-28T01:40:16;5.55;;;3.60;;
57778;SDS011;43608;49.486;9.640;2023-02-28T01:40:47;4.78;;;3.17;;
57778;SDS011;43608;49.486;9.640;2023-02-28T01:41:22;4.43;;;3.40;;
57778;SDS011;43608;49.486;9.640;2023-02-28T01:41:54;5.28;;;3.63;;
57778;SDS011;43608;49.486;9.640;2023-02-28T01:42:24;4.00;;;3.03;;
57778;SDS011;43608;49.486;9.640;2023-02-28T01:42:55;5.00;;;3.42;;
57778;SDS011;43608;49.486;9.640;2023-02-28T01:43:29;4.90;;;3.40;;
57778;SDS011;43608;49.486;9.640;2023-02-28T01:45:17;4.47;;;3.22;;
57778;SDS011;43608;49.486;9.640;2023-02-28T01:45:53;4.63;;;3.40;;
57778;SDS011;43608;49.486;9.640;2023-02-28T01:46:24;5.28;;;3.38;;
57778;SDS011;43608;49.486;9.640;2023-02-28T01:46:55;4.63;;;3.30;;
57778;SDS011;43608;49.486;9.640;2023-02-28T01:47:27;4.10;;;3.38;;
57778;SDS011;43608;49.486;9.640;2023-02-28T01:48:04;4.75;;;3.30;;
57778;SDS011;43608;49.486;9.640;2023-02-28T01:48:38;4.15;;;3.25;;
57778;SDS011;43608;49.486;9.640;2023-02-28T01:49:13;4.45;;;3.30;;
57778;SDS011;43608;49.486;9.640;2023-02-28T01:49:46;4.22;;;3.03;;
57778;SDS011;43608;49.486;9.640;2023-02-28T01:50:19;4.05;;;3.03;;
57778;SDS011;43608;49.486;9.640;2023-02-28T01:50:53;4.40;;;3.30;;
57778;SDS011;43608;49.486;9.640;2023-02-28T01:51:27;4.70;;;3.47;;
57778;SDS011;43608;49.486;9.640;2023-02-28T01:52:04;5.07;;;3.50;;
57778;SDS011;43608;49.486;9.640;2023-02-28T01:52:35;5.32;;;3.55;;
57778;SDS011;43608;49.486;9.640;2023-02-28T01:53:06;6.55;;;3.60;;
57778;SDS011;43608;49.486;9.640;2023-02-28T01:53:51;4.88;;;3.80;;
57778;SDS011;43608;49.486;9.640;2023-02-28T01:54:29;4.72;;;3.30;;
57778;SDS011;43608;49.486;9.640;2023-02-28T01:55:04;4.72;;;3.30;;
57778;SDS011;43608;49.486;9.640;2023-02-28T01:55:37;4.93;;;3.47;;
57778;SDS011;43608;49.486;9.640;2023-02-28T01:56:09;4.85;;;3.47;;
57778;SDS011;43608;49.486;9.640;2023-02-28T01:56:44;5.32;;;3.50;;
57778;SDS011;43608;49.486;9.640;2023-02-28T01:57:27;4.80;;;3.33;;
57778;SDS011;43608;49.486;9.640;2023-02-28T01:58:07;5.43;;;3.70;;
57778;SDS011;43608;49.486;9.640;2023-02-28T01:58:38;4.68;;;3.38;;
57778;SDS011;43608;49.486;9.640;2023-02-28T01:59:09;4.22;;;3.20;;
57778;SDS011;43608;49.486;9.640;2023-02-28T02:00:17;4.65;;;3.60;;
57778;SDS011;43608;49.486;9.640;2023-02-28T02:00:49;5.25;;;3.53;;
57778;SDS011;43608;49.486;9.640;2023-02-28T02:01:20;4.90;;;3.58;;
57778;SDS011;43608;49.486;9.640;2023-02-28T02:01:53;4.38;;;3.28;;
57778;SDS011;43608;49.486;9.640;2023-02-28T02:02:24;5.28;;;3.72;;
57778;SDS011;43608;49.486;9.640;2023-02-28T02:02:57;4.47;;;3.45;;
57778;SDS011;43608;49.486;9.640;2023-02-28T02:03:30;5.07;;;3.47;;
57778;SDS011;43608;49.486;9.640;2023-02-28T02:04:01;5.65;;;3.50;;
57778;SDS011;43608;49.486;9.640;2023-02-28T02:04:45;4.38;;;3.35;;
57778;SDS011;43608;49.486;9.640;2023-02-28T02:05:21;4.80;;;3.28;;
57778;SDS011;43608;49.486;9.640;2023-02-28T02:05:54;4.07;;;3.10;;
57778;SDS011;43608;49.486;9.640;2023-02-28T02:06:25;4.40;;;3.30;;
57778;SDS011;43608;49.486;9.640;2023-02-28T02:06:59;3.70;;;3.17;;
57778;SDS011;43608;49.486;9.640;2023-02-28T02:07:31;4.50;;;3.20;;
57778;SDS011;43608;49.486;9.640;2023-02-28T02:08:05;5.15;;;3.65;;
57778;SDS011;43608;49.486;9.640;2023-02-28T02:08:39;4.45;;;3.28;;
57778;SDS011;43608;49.486;9.640;2023-02-28T02:09:10;4.65;;;3.55;;
57778;SDS011;43608;49.486;9.640;2023-02-28T02:09:41;5.15;;;3.78;;
57778;SDS011;43608;49.486;9.640;2023-02-28T02:10:53;5.03;;;3.58;;
57778;SDS011;43608;49.486;9.640;2023-02-28T02:11:30;4.30;;;3.42;;
57778;SDS011;43608;49.486;9.640;2023-02-28T02:12:03;4.40;;;3.20;;
57778;SDS011;43608;49.486;9.640;2023-02-28T02:12:58;4.97;;;3.35;;
57778;SDS011;43608;49.486;9.640;2023-02-28T02:14:43;5.57;;;3.80;;
57778;SDS011;43608;49.486;9.640;2023-02-28T02:15:52;4.78;;;3.78;;
57778;SDS011;43608;49.486;9.640;2023-02-28T02:17:44;6.40;;;3.75;;
57778;SDS011;43608;49.486;9.640;2023-02-28T02:25:51;5.75;;;4.10;;
57778;SDS011;43608;49.486;9.640;2023-02-28T02:27:39;5.60;;;3.95;;
57778;SDS011;43608;49.486;9.640;2023-02-28T02:28:39;5.68;;;3.50;;
57778;SDS011;43608;49.486;9.640;2023-02-28T02:29:40;5.15;;;3.80;;
57778;SDS011;43608;49.486;9.640;2023-02-28T02:36:27;4.72;;;3.50;;
57778;SDS011;43608;49.486;9.640;2023-02-28T02:38:06;5.70;;;3.80;;
57778;SDS011;43608;49.486;9.640;2023-02-28T02:38:38;5.75;;;3.90;;
57778;SDS011;43608;49.486;9.640;2023-02-28T02:39:13;6.25;;;3.80;;
57778;SDS011;43608;49.486;9.640;2023-02-28T02:40:34;4.70;;;3.38;;
57778;SDS011;43608;49.486;9.640;2023-02-28T02:42:18;4.65;;;3.50;;
57778;SDS011;43608;49.486;9.640;2023-02-28T02:43:13;5.05;;;3.65;;
57778;SDS011;43608;49.486;9.640;2023-02-28T02:44:20;5.10;;;3.65;;
57778;SDS011;43608;49.486;9.640;2023-02-28T02:45:14;5.55;;;3.47;;
57778;SDS011;43608;49.486;9.640;2023-02-28T02:45:50;5.40;;;3.80;;
57778;SDS011;43608;49.486;9.640;2023-02-28T02:47:06;5.70;;;3.88;;
57778;SDS011;43608;49.486;9.640;2023-02-28T02:47:40;5.13;;;3.97;;
57778;SDS011;43608;49.486;9.640;2023-02-28T02:48:14;5.32;;;3.92;;
57778;SDS011;43608;49.486;9.640;2023-02-28T02:48:49;5.22;;;3.70;;
57778;SDS011;43608;49.486;9.640;2023-02-28T02:49:26;4.97;;;3.80;;
57778;SDS011;43608;49.486;9.640;2023-02-28T02:50:02;4.80;;;3.78;;
57778;SDS011;43608;49.486;9.640;2023-02-28T02:50:38;6.13;;;3.65;;
57778;SDS011;43608;49.486;9.640;2023-02-28T02:51:14;4.97;;;3.90;;
57778;SDS011;43608;49.486;9.640;2023-02-28T02:51:47;5.13;;;3.72;;
57778;SDS011;43608;49.486;9.640;2023-02-28T02:52:20;5.22;;;3.80;;
57778;SDS011;43608;49.486;9.640;2023-02-28T02:52:56;4.85;;;3.67;;
57778;SDS011;43608;49.486;9.640;2023-02-28T02:53:37;4.90;;;3.58;;
57778;SDS011;43608;49.486;9.640;2023-02-28T02:54:13;4.68;;;3.50;;
57778;SDS011;43608;49.486;9.640;2023-02-28T02:54:48;5.10;;;3.42;;
57778;SDS011;43608;49.486;9.640;2023-02-28T02:55:20;5.15;;;3.65;;
57778;SDS011;43608;49.486;9.640;2023-02-28T02:55:53;5.18;;;3.60;;
57778;SDS011;43608;49.486;9.640;2023-02-28T02:56:26;4.28;;;3.35;;
57778;SDS011;43608;49.486;9.640;2023-02-28T02:57:03;5.85;;;3.58;;
57778;SDS011;43608;49.486;9.640;2023-02-28T02:57:40;4.97;;;3.50;;
57778;SDS011;43608;49.486;9.640;2023-02-28T02:58:17;4.57;;;3.35;;
57778;SDS011;43608;49.486;9.640;2023-02-28T02:58:50;5.35;;;3.63;;
57778;SDS011;43608;49.486;9.640;2023-02-28T02:59:23;4.68;;;3.53;;
57778;SDS011;43608;49.486;9.640;2023-02-28T02:59:55;5.40;;;3.50;;
57778;SDS011;43608;49.486;9.640;2023-02-28T03:00:31;4.32;;;3.30;;
57778;SDS011;43608;49.486;9.640;2023-02-28T03:01:05;5.82;;;3.53;;
57778;SDS011;43608;49.486;9.640;2023-02-28T03:01:36;5.18;;;3.40;;
57778;SDS011;43608;49.486;9.640;2023-02-28T03:02:11;4.60;;;3.28;;
57778;SDS011;43608;49.486;9.640;2023-02-28T03:02:45;4.80;;;3.53;;
57778;SDS011;43608;49.486;9.640;2023-02-28T03:03:17;4.13;;;3.25;;
57778;SDS011;43608;49.486;9.640;2023-02-28T03:03:50;4.55;;;3.35;;
57778;SDS011;43608;49.486;9.640;2023-02-28T03:04:22;4.47;;;3.35;;
57778;SDS011;43608;49.486;9.640;2023-02-28T03:04:56;4.53;;;3.55;;
57778;SDS011;43608;49.486;9.640;2023-02-28T03:05:34;4.55;;;3.30;;
57778;SDS011;43608;49.486;9.640;2023-02-28T03:06:44;5.00;;;3.60;;
57778;SDS011;43608;49.486;9.640;2023-02-28T03:07:15;4.65;;;3.25;;
57778;SDS011;43608;49.486;9.640;2023-02-28T03:07:45;5.60;;;3.30;;
57778;SDS011;43608;49.486;9.640;2023-02-28T03:08:16;4.38;;;3.35;;
57778;SDS011;43608;49.486;9.640;2023-02-28T03:08:47;4.22;;;3.30;;
57778;SDS011;43608;49.486;9.640;2023-02-28T03:09:17;4.35;;;3.40;;
57778;SDS011;43608;49.486;9.640;2023-02-28T03:09:54;4.88;;;3.50;;
57778;SDS011;43608;49.486;9.640;2023-02-28T03:10:45;4.22;;;3.33;;
57778;SDS011;43608;49.486;9.640;2023-02-28T03:11:18;4.28;;;3.08;;
57778;SDS011;43608;49.486;9.640;2023-02-28T03:11:51;3.58;;;3.10;;
57778;SDS011;43608;49.486;9.640;2023-02-28T03:12:28;4.95;;;3.40;;
57778;SDS011;43608;49.486;9.640;2023-02-28T03:15:24;4.43;;;3.08;;
57778;SDS011;43608;49.486;9.640;2023-02-28T03:16:24;5.07;;;3.40;;
57778;SDS011;43608;49.486;9.640;2023-02-28T03:18:12;4.30;;;3.22;;
57778;SDS011;43608;49.486;9.640;2023-02-28T03:20:01;4.30;;;3.30;;
57778;SDS011;43608;49.486;9.640;2023-02-28T03:21:24;4.78;;;3.30;;
57778;SDS011;43608;49.486;9.640;2023-02-28T03:22:59;4.15;;;3.28;;
57778;SDS011;43608;49.486;9.640;2023-02-28T03:24:27;4.82;;;3.42;;
57778;SDS011;43608;49.486;9.640;2023-02-28T03:25:12;5.55;;;3.50;;
57778;SDS011;43608;49.486;9.640;2023-02-28T03:26:22;5.25;;;3.72;;
57778;SDS011;43608;49.486;9.640;2023-02-28T03:26:58;5.50;;;3.42;;
57778;SDS011;43608;49.486;9.640;2023-02-28T03:29:25;4.47;;;3.30;;
57778;SDS011;43608;49.486;9.640;2023-02-28T03:30:03;4.45;;;3.13;;
57778;SDS011;43608;49.486;9.640;2023-02-28T03:31:33;4.30;;;3.40;;
57778;SDS011;43608;49.486;9.640;2023-02-28T03:32:11;4.32;;;3.30;;
57778;SDS011;43608;49.486;9.640;2023-02-28T03:33:06;4.93;;;3.30;;
57778;SDS011;43608;49.486;9.640;2023-02-28T03:33:44;5.47;;;3.63;;
57778;SDS011;43608;49.486;9.640;2023-02-28T03:34:33;5.15;;;3.65;;
57778;SDS011;43608;49.486;9.640;2023-02-28T03:35:26;4.53;;;3.10;;
57778;SDS011;43608;49.486;9.640;2023-02-28T03:36:09;4.85;;;3.50;;
57778;SDS011;43608;49.486;9.640;2023-02-28T03:36:45;4.90;;;3.20;;
57778;SDS011;43608;49.486;9.640;2023-02-28T03:37:20;4.93;;;3.60;;
57778;SDS011;43608;49.486;9.640;2023-02-28T03:37:56;4.55;;;3.47;;
57778;SDS011;43608;49.486;9.640;2023-02-28T03:38:40;4.47;;;3.50;;
57778;SDS011;43608;49.486;9.640;2023-02-28T03:39:19;5.00;;;3.60;;
57778;SDS011;43608;49.486;9.640;2023-02-28T03:39:54;4.60;;;3.60;;
57778;SDS011;43608;49.486;9.640;2023-02-28T03:40:36;4.57;;;3.47;;
57778;SDS011;43608;49.486;9.640;2023-02-28T03:41:59;5.93;;;3.67;;
57778;SDS011;43608;49.486;9.640;2023-02-28T03:42:33;4.90;;;4.00;;
57778;SDS011;43608;49.486;9.640;2023-02-28T03:43:08;4.90;;;3.58;;
57778;SDS011;43608;49.486;9.640;2023-02-28T03:43:55;5.32;;;3.65;;
57778;SDS011;43608;49.486;9.640;2023-02-28T03:44:42;4.60;;;3.50;;
57778;SDS011;43608;49.486;9.640;2023-02-28T03:45:19;4.40;;;3.50;;
57778;SDS011;43608;49.486;9.640;2023-02-28T03:45:54;5.72;;;3.80;;
57778;SDS011;43608;49.486;9.640;2023-02-28T03:46:27;4.65;;;3.45;;
57778;SDS011;43608;49.486;9.640;2023-02-28T03:47:12;4.60;;;3.50;;
57778;SDS011;43608;49.486;9.640;2023-02-28T03:47:54;4.60;;;3.40;;
57778;SDS011;43608;49.486;9.640;2023-02-28T03:48:51;5.25;;;3.30;;
57778;SDS011;43608;49.486;9.640;2023-02-28T03:49:49;4.28;;;3.20;;
57778;SDS011;43608;49.486;9.640;2023-02-28T03:51:06;5.18;;;3.58;;
57778;SDS011;43608;49.486;9.640;2023-02-28T03:51:41;4.40;;;3.25;;
57778;SDS011;43608;49.486;9.640;2023-02-28T03:52:16;4.82;;;3.50;;
57778;SDS011;43608;49.486;9.640;2023-02-28T03:52:56;5.10;;;3.40;;
57778;SDS011;43608;49.486;9.640;2023-02-28T03:53:35;4.15;;;3.30;;
57778;SDS011;43608;49.486;9.640;2023-02-28T03:54:11;4.95;;;3.70;;
57778;SDS011;43608;49.486;9.640;2023-02-28T03:54:47;4.53;;;3.35;;
57778;SDS011;43608;49.486;9.640;2023-02-28T03:55:20;4.43;;;3.53;;
57778;SDS011;43608;49.486;9.640;2023-02-28T03:55:53;5.63;;;3.70;;
57778;SDS011;43608;49.486;9.640;2023-02-28T03:56:39;4.80;;;3.67;;
57778;SDS011;43608;49.486;9.640;2023-02-28T03:59:14;4.35;;;3.50;;
57778;SDS011;43608;49.486;9.640;2023-02-28T03:59:47;5.00;;;3.22;;
57778;SDS011;43608;49.486;9.640;2023-02-28T04:00:36;4.88;;;3.40;;
57778;SDS011;43608;49.486;9.640;2023-02-28T04:01:12;5.07;;;3.65;;
57778;SDS011;43608;49.486;9.640;2023-02-28T04:01:49;4.60;;;3.40;;